createdAt,value
2016-09-22T00:00:02.137Z,59.5
2016-09-22T00:10:02.136Z,59.5
2016-09-22T00:20:02.143Z,60
2016-09-22T00:30:02.136Z,59.5
2016-09-22T00:40:09.183Z,59.5
2016-09-22T00:50:02.127Z,59.5
2016-09-22T01:00:09.170Z,59.5
2016-09-22T01:11:05.316Z,59.5
2016-09-22T01:20:11.116Z,59.5
2016-09-22T01:30:17.202Z,59.5
2016-09-22T01:40:25.469Z,59.5
2016-09-22T01:50:17.445Z,58.9
2016-09-22T02:00:02.148Z,58.4
2016-09-22T02:10:02.170Z,59.5
2016-09-22T02:20:02.127Z,58.9
2016-09-22T02:30:02.129Z,58.4
2016-09-22T02:40:02.131Z,58.4
2016-09-22T02:50:02.130Z,58.9
2016-09-22T03:00:02.123Z,58.9
2016-09-22T03:10:02.141Z,58.9
2016-09-22T03:20:02.127Z,58.4
2016-09-22T03:30:02.134Z,58.4
2016-09-22T03:40:02.129Z,58.4
2016-09-22T03:50:02.152Z,58.4
2016-09-22T04:00:02.169Z,58.4
2016-09-22T04:10:02.131Z,58.4
2016-09-22T04:20:02.129Z,58.4
2016-09-22T04:30:02.124Z,57.3
2016-09-22T04:40:02.125Z,58.4
2016-09-22T04:50:02.134Z,57.3
2016-09-22T05:00:02.099Z,57.3
2016-09-22T05:10:02.129Z,57.3
2016-09-22T05:20:02.157Z,57.8
2016-09-22T05:30:02.118Z,57.8
2016-09-22T05:40:02.127Z,57.3
2016-09-22T05:50:02.136Z,57.3
2016-09-22T06:00:02.124Z,57.8
2016-09-22T06:10:02.133Z,57.3
2016-09-22T06:20:02.122Z,57.3
2016-09-22T06:30:02.160Z,57.3
2016-09-22T06:40:02.144Z,57.3
2016-09-22T06:50:02.124Z,57.3
2016-09-22T07:00:02.125Z,57.8
2016-09-22T07:10:02.125Z,57.3
2016-09-22T07:20:02.137Z,57.8
2016-09-22T07:30:02.186Z,57.8
2016-09-22T07:40:02.137Z,57.8
2016-09-22T07:50:02.127Z,57.8
2016-09-22T08:00:02.129Z,57.8
2016-09-22T08:10:02.129Z,57.8
2016-09-22T08:20:02.128Z,58.4
2016-09-22T08:30:02.162Z,58.4
2016-09-22T08:40:02.127Z,58.9
2016-09-22T08:50:02.127Z,58.9
2016-09-22T09:00:17.200Z,58.4
2016-09-22T09:10:20.476Z,58.9
2016-09-22T09:20:10.417Z,58.9
2016-09-22T09:31:05.296Z,59.5
2016-09-22T09:40:10.405Z,59.5
2016-09-22T09:50:19.491Z,59.5
2016-09-22T10:00:09.432Z,60
2016-09-22T10:10:10.420Z,59.5
2016-09-22T10:20:10.417Z,59.5
2016-09-22T10:30:10.418Z,60
2016-09-22T10:40:04.491Z,60
2016-09-22T10:50:02.146Z,60
2016-09-22T11:00:02.127Z,60.5
2016-09-22T11:10:02.130Z,60.5
2016-09-22T11:20:02.129Z,61.1
2016-09-22T11:30:02.143Z,61.1
2016-09-22T11:40:02.140Z,61.6
2016-09-22T11:50:02.136Z,61.6
2016-09-22T12:00:02.131Z,61.6
2016-09-22T12:10:01.354Z,61.6
2016-09-22T12:20:04.586Z,61.6
2016-09-22T12:30:10.427Z,61.6
2016-09-22T12:40:02.132Z,61.6
2016-09-22T12:50:02.150Z,61.6
2016-09-22T13:00:02.135Z,61.6
2016-09-22T13:10:02.135Z,61.6
2016-09-22T13:20:02.184Z,62.1
2016-09-22T13:30:02.137Z,61.6
2016-09-22T13:40:02.132Z,61.6
2016-09-22T13:50:02.133Z,61.6
2016-09-22T14:00:02.134Z,61.6
2016-09-22T14:10:02.146Z,62.1
2016-09-22T14:20:02.136Z,62.1
2016-09-22T14:30:02.136Z,62.7
2016-09-22T14:40:02.135Z,61.6
2016-09-22T14:50:02.174Z,62.1
2016-09-22T15:00:02.152Z,62.7
2016-09-22T15:10:02.143Z,62.1
2016-09-22T15:20:00.864Z,62.7
2016-09-22T15:30:10.425Z,62.7
2016-09-22T15:40:10.446Z,62.7
2016-09-22T15:50:02.135Z,62.7
2016-09-22T16:00:02.162Z,62.7
2016-09-22T16:10:02.139Z,62.7
2016-09-22T16:20:02.132Z,62.7
2016-09-22T16:30:02.145Z,62.7
2016-09-22T16:41:05.322Z,62.7
2016-09-22T16:50:25.467Z,62.7
2016-09-22T17:00:04.712Z,62.7
2016-09-22T17:10:02.132Z,62.1
2016-09-22T17:20:02.161Z,62.1
2016-09-22T17:30:02.142Z,62.7
2016-09-22T17:40:02.138Z,62.7
2016-09-22T17:50:02.159Z,62.7
2016-09-22T18:00:02.139Z,62.1
2016-09-22T18:10:02.134Z,62.1
2016-09-22T18:20:02.174Z,62.7
2016-09-22T18:30:02.246Z,62.1
2016-09-22T18:40:02.140Z,62.7
2016-09-22T18:50:02.145Z,62.1
2016-09-22T19:00:02.133Z,62.7
2016-09-22T19:10:02.138Z,62.7
2016-09-22T19:20:02.134Z,62.7
2016-09-22T19:30:02.164Z,62.1
2016-09-22T19:40:02.143Z,62.1
2016-09-22T19:50:02.144Z,61.6
2016-09-22T20:00:02.164Z,62.1
2016-09-22T20:10:02.145Z,61.6
2016-09-22T20:20:02.136Z,61.6
2016-09-22T20:30:02.171Z,61.6
2016-09-22T20:40:02.136Z,61.6
2016-09-22T20:50:02.139Z,61.6
2016-09-22T21:00:02.133Z,61.6
2016-09-22T21:10:02.182Z,61.6
2016-09-22T21:20:01.301Z,61.6
2016-09-22T21:30:10.443Z,61.6
2016-09-22T21:40:10.443Z,61.6
2016-09-22T21:50:10.408Z,61.6
2016-09-22T22:00:10.437Z,61.6
2016-09-22T22:10:04.920Z,61.6
2016-09-22T22:20:02.165Z,61.6
2016-09-22T22:30:02.149Z,61.6
2016-09-22T22:40:02.144Z,61.6
2016-09-22T22:50:02.160Z,61.6
2016-09-22T23:00:02.135Z,61.1
2016-09-22T23:10:02.165Z,60.5
2016-09-22T23:20:02.174Z,60.5
2016-09-22T23:30:02.160Z,61.1
2016-09-22T23:40:08.000Z,60.5
2016-09-22T23:50:10.434Z,60.5
